| time (UTC) | temp C | wind direction | speed KPH | gust KPH | rain 1hr cm | rain 24hr cm | rain mn cm | humidity % | barometer mb |
| 20260508063017 | 13 | 10 | 1.6 | 3.2 | 0.00 | 0.00 | 0.00 | 96 | 1017.4 |
| 20260508062101 | 13 | 9 | 1.6 | 3.2 | 0.00 | 0.00 | 0.00 | 99 | 1017.5 |
| 20260508061032 | 12 | 283 | 1.6 | 8.0 | 0.00 | 0.00 | 0.00 | 99 | 1017.5 |
| 20260508060024 | 12 | 252 | 3.2 | 4.8 | 0.00 | 0.00 | 0.00 | 99 | 1017.5 |
| 20260508055016 | 12 | 233 | 1.6 | 4.8 | 0.00 | 0.00 | 0.00 | 99 | 1017.5 |
| 20260508054041 | 11 | 241 | 3.2 | 4.8 | 0.00 | 0.00 | 0.00 | 99 | 1017.6 |
| 20260508053032 | 12 | 277 | 1.6 | 4.8 | 0.00 | 0.00 | 0.00 | 99 | 1017.6 |
| 20260508052024 | 11 | 349 | 3.2 | 8.0 | 0.00 | 0.00 | 0.00 | 99 | 1017.6 |
| 20260508051037 | 11 | 4 | 3.2 | 9.7 | 0.00 | 0.00 | 0.00 | 99 | 1017.6 |
| 20260508050041 | 11 | 281 | 3.2 | 4.8 | 0.00 | 0.00 | 0.00 | 99 | 1017.5 |
| 20260508045032 | 11 | 264 | 1.6 | 3.2 | 0.00 | 0.00 | 0.00 | 99 | 1017.5 |
| 20260508044044 | 11 | 8 | 0.0 | 3.2 | 0.00 | 0.00 | 0.00 | 99 | 1017.2 |
| 20260508043016 | 11 | 305 | 1.6 | 4.8 | 0.00 | 0.00 | 0.00 | 99 | 1017.2 |
| 20260508042041 | 11 | 352 | 0.0 | 1.6 | 0.00 | 0.00 | 0.00 | 99 | 1017.1 |
| 20260508041032 | 11 | 10 | 0.0 | 3.2 | 0.00 | 0.00 | 0.00 | 99 | 1016.9 |
| 20260508040042 | 11 | 11 | 1.6 | 3.2 | 0.00 | 0.00 | 0.00 | 99 | 1016.8 |
| 20260508035032 | 11 | 358 | 0.0 | 1.6 | 0.00 | 0.00 | 0.00 | 99 | 1016.7 |
| 20260508034025 | 11 | 58 | 0.0 | 1.6 | 0.00 | 0.00 | 0.00 | 99 | 1016.8 |
| 20260508033055 | 11 | 79 | 1.6 | 3.2 | 0.00 | 0.00 | 0.00 | 99 | 1016.7 |
| 20260508032041 | 11 | 0.0 | 0.0 | 0.00 | 0.00 | 0.00 | 99 | 1016.8 | |
| 20260508031033 | 11 | 103 | 1.6 | 3.2 | 0.00 | 0.00 | 0.00 | 99 | 1016.7 |
| 20260508030024 | 11 | 78 | 0.0 | 1.6 | 0.00 | 0.00 | 0.00 | 99 | 1016.7 |
| 20260508025017 | 11 | 21 | 0.0 | 1.6 | 0.00 | 0.00 | 0.00 | 99 | 1016.7 |
| 20260508024041 | 11 | 134 | 1.6 | 3.2 | 0.00 | 0.00 | 0.00 | 99 | 1016.7 |
| 20260508023032 | 11 | 128 | 1.6 | 3.2 | 0.00 | 0.00 | 0.00 | 99 | 1016.6 |
| 20260508022025 | 11 | 130 | 1.6 | 3.2 | 0.00 | 0.00 | 0.00 | 99 | 1016.6 |
| 20260508021016 | 11 | 59 | 1.6 | 3.2 | 0.00 | 0.00 | 0.00 | 99 | 1016.8 |
| 20260508020042 | 11 | 53 | 0.0 | 1.6 | 0.00 | 0.00 | 0.00 | 99 | 1016.7 |
| 20260508015017 | 11 | 138 | 3.2 | 3.2 | 0.00 | 0.00 | 0.00 | 99 | 1016.7 |
| 20260508014105 | 11 | 0.0 | 0.0 | 0.00 | 0.00 | 0.00 | 99 | 1016.8 | |
| 20260508013037 | 11 | 0.0 | 0.0 | 0.00 | 0.00 | 0.00 | 99 | 1016.8 | |
| 20260508012101 | 11 | 23 | 0.0 | 1.6 | 0.00 | 0.00 | 0.00 | 99 | 1016.9 |
| 20260508011053 | 10 | 109 | 1.6 | 3.2 | 0.00 | 0.00 | 0.00 | 99 | 1017.1 |
| 20260508010024 | 11 | 0.0 | 0.0 | 0.00 | 0.00 | 0.00 | 99 | 1017.0 | |
| 20260508005017 | 11 | 97 | 1.6 | 3.2 | 0.00 | 0.00 | 0.00 | 99 | 1017.0 |
| 20260508004025 | 11 | 97 | 1.6 | 4.8 | 0.00 | 0.00 | 0.00 | 99 | 1017.0 |
| 20260508003032 | 11 | 71 | 0.0 | 3.2 | 0.00 | 0.00 | 0.00 | 99 | 1017.0 |
| 20260508002040 | 11 | 76 | 1.6 | 3.2 | 0.00 | 0.00 | 0.00 | 99 | 1017.1 |
| 20260508001037 | 11 | 160 | 1.6 | 4.8 | 0.00 | 0.00 | 0.00 | 99 | 1017.2 |
| 20260508000041 | 11 | 69 | 0.0 | 1.6 | 0.00 | 0.00 | 0.00 | 99 | 1017.2 |
| 20260507235017 | 11 | 78 | 1.6 | 3.2 | 0.00 | 0.00 | 0.00 | 99 | 1017.2 |
| 20260507234045 | 11 | 65 | 3.2 | 8.0 | 0.00 | 0.00 | 0.00 | 99 | 1017.0 |
| 20260507233017 | 11 | 79 | 3.2 | 9.7 | 0.00 | 0.00 | 0.00 | 99 | 1016.9 |
| 20260507232101 | 11 | 80 | 4.8 | 11.3 | 0.00 | 0.00 | 0.00 | 99 | 1017.1 |
| 20260507231017 | 11 | 49 | 3.2 | 9.7 | 0.00 | 0.00 | 0.00 | 99 | 1017.0 |
| 20260507230041 | 12 | 57 | 1.6 | 4.8 | 0.00 | 0.00 | 0.00 | 99 | 1017.1 |
| 20260507225052 | 12 | 75 | 1.6 | 8.0 | 0.00 | 0.00 | 0.00 | 99 | 1017.1 |
| 20260507224025 | 12 | 62 | 3.2 | 9.7 | 0.00 | 0.00 | 0.00 | 99 | 1017.1 |
| 20260507223053 | 12 | 58 | 3.2 | 8.0 | 0.00 | 0.00 | 0.00 | 99 | 1017.2 |
| 20260507222026 | 12 | 46 | 1.6 | 9.7 | 0.00 | 0.00 | 0.00 | 99 | 1017.3 |
| 20260507221017 | 12 | 24 | 0.0 | 1.6 | 0.00 | 0.00 | 0.00 | 99 | 1017.4 |
| 20260507220032 | 12 | 48 | 3.2 | 12.9 | 0.00 | 0.00 | 0.00 | 99 | 1017.4 |
| 20260507215018 | 12 | 56 | 3.2 | 11.3 | 0.00 | 0.00 | 0.00 | 99 | 1017.4 |
| 20260507214045 | 12 | 53 | 4.8 | 12.9 | 0.00 | 0.00 | 0.00 | 99 | 1017.4 |
| 20260507213033 | 12 | 56 | 4.8 | 9.7 | 0.00 | 0.00 | 0.00 | 99 | 1017.3 |
| 20260507212025 | 12 | 44 | 3.2 | 8.0 | 0.00 | 0.00 | 0.00 | 99 | 1017.3 |
| 20260507211052 | 12 | 64 | 4.8 | 14.5 | 0.00 | 0.00 | 0.00 | 99 | 1017.4 |
| 20260507210041 | 12 | 39 | 4.8 | 11.3 | 0.00 | 0.00 | 0.00 | 99 | 1017.3 |
| 20260507205017 | 12 | 52 | 3.2 | 9.7 | 0.00 | 0.00 | 0.00 | 99 | 1017.4 |
| 20260507204025 | 12 | 56 | 3.2 | 9.7 | 0.00 | 0.00 | 0.00 | 99 | 1017.3 |
| 20260507203034 | 12 | 53 | 3.2 | 8.0 | 0.00 | 0.00 | 0.00 | 99 | 1017.3 |
| 20260507202041 | 12 | 50 | 3.2 | 9.7 | 0.00 | 0.00 | 0.00 | 99 | 1017.3 |
| 20260507201017 | 12 | 51 | 4.8 | 9.7 | 0.00 | 0.00 | 0.00 | 99 | 1017.4 |
| 20260507200026 | 12 | 46 | 3.2 | 9.7 | 0.00 | 0.00 | 0.00 | 99 | 1017.5 |
| 20260507195018 | 12 | 65 | 3.2 | 9.7 | 0.00 | 0.00 | 0.00 | 99 | 1017.4 |
| 20260507194045 | 12 | 44 | 4.8 | 9.7 | 0.00 | 0.00 | 0.00 | 99 | 1017.4 |
| 20260507193112 | 12 | 45 | 3.2 | 8.0 | 0.00 | 0.00 | 0.00 | 99 | 1017.4 |
| 20260507192042 | 12 | 35 | 3.2 | 8.0 | 0.00 | 0.00 | 0.00 | 99 | 1017.3 |
| 20260507191032 | 12 | 23 | 3.2 | 9.7 | 0.00 | 0.00 | 0.00 | 99 | 1017.3 |
| 20260507190025 | 12 | 42 | 6.4 | 12.9 | 0.00 | 0.00 | 0.00 | 99 | 1017.4 |
| 20260507185018 | 12 | 51 | 1.6 | 9.7 | 0.00 | 0.00 | 0.00 | 99 | 1017.3 |
| 20260507184042 | 12 | 39 | 4.8 | 12.9 | 0.00 | 0.00 | 0.00 | 99 | 1017.2 |
| 20260507183032 | 12 | 68 | 3.2 | 11.3 | 0.00 | 0.00 | 0.00 | 99 | 1017.3 |
| 20260507182041 | 12 | 58 | 3.2 | 14.5 | 0.00 | 0.00 | 0.00 | 99 | 1017.2 |
| 20260507181032 | 12 | 42 | 6.4 | 11.3 | 0.00 | 0.00 | 0.00 | 99 | 1016.9 |
| 20260507175031 | 12 | 68 | 3.2 | 11.3 | 0.00 | 0.00 | 0.00 | 99 | 1017.1 |
| 20260507174025 | 12 | 62 | 3.2 | 8.0 | 0.00 | 0.00 | 0.00 | 98 | 1017.1 |
| 20260507173057 | 12 | 59 | 8.0 | 14.5 | 0.00 | 0.00 | 0.00 | 98 | 1016.8 |
| 20260507172101 | 12 | 84 | 8.0 | 16.1 | 0.00 | 0.00 | 0.00 | 98 | 1016.9 |
| 20260507171033 | 12 | 52 | 11.3 | 17.7 | 0.00 | 0.00 | 0.00 | 97 | 1016.9 |
| 20260507170026 | 12 | 64 | 8.0 | 20.9 | 0.00 | 0.00 | 0.00 | 97 | 1016.9 |
| 20260507165017 | 12 | 67 | 8.0 | 14.5 | 0.00 | 0.00 | 0.00 | 96 | 1017.0 |
| 20260507164101 | 12 | 30 | 6.4 | 14.5 | 0.00 | 0.00 | 0.00 | 96 | 1017.0 |
| 20260507163032 | 12 | 60 | 8.0 | 17.7 | 0.00 | 0.00 | 0.00 | 95 | 1016.9 |
| 20260507162026 | 13 | 64 | 6.4 | 14.5 | 0.00 | 0.00 | 0.00 | 95 | 1016.8 |
| 20260507161017 | 13 | 59 | 6.4 | 14.5 | 0.00 | 0.00 | 0.00 | 94 | 1016.8 |
| 20260507160041 | 13 | 39 | 6.4 | 16.1 | 0.00 | 0.00 | 0.00 | 94 | 1016.8 |
| 20260507155032 | 13 | 64 | 4.8 | 12.9 | 0.00 | 0.00 | 0.00 | 93 | 1016.8 |
| 20260507154046 | 13 | 40 | 6.4 | 22.5 | 0.00 | 0.00 | 0.00 | 92 | 1016.9 |
| 20260507153017 | 13 | 63 | 6.4 | 14.5 | 0.00 | 0.00 | 0.00 | 91 | 1016.8 |
| 20260507152041 | 14 | 40 | 6.4 | 22.5 | 0.00 | 0.00 | 0.00 | 89 | 1016.9 |
| 20260507151019 | 14 | 41 | 8.0 | 17.7 | 0.00 | 0.00 | 0.00 | 88 | 1017.1 |
| 20260507150026 | 15 | 38 | 6.4 | 12.9 | 0.00 | 0.00 | 0.00 | 86 | 1017.0 |
| 20260507145018 | 15 | 54 | 4.8 | 9.7 | 0.00 | 0.00 | 0.00 | 86 | 1017.2 |
| 20260507144025 | 15 | 51 | 6.4 | 16.1 | 0.00 | 0.00 | 0.00 | 86 | 1017.1 |
| 20260507143017 | 15 | 62 | 6.4 | 16.1 | 0.00 | 0.00 | 0.00 | 85 | 1017.1 |
| 20260507142041 | 15 | 18 | 6.4 | 14.5 | 0.00 | 0.00 | 0.00 | 85 | 1017.2 |
| 20260507141033 | 15 | 57 | 4.8 | 12.9 | 0.00 | 0.00 | 0.00 | 85 | 1017.2 |
| 20260507140026 | 15 | 39 | 6.4 | 14.5 | 0.00 | 0.00 | 0.00 | 84 | 1017.2 |
| 20260507135110 | 15 | 54 | 6.4 | 20.9 | 0.00 | 0.00 | 0.00 | 86 | 1017.2 |
| 20260507134026 | 15 | 36 | 8.0 | 24.1 | 0.00 | 0.00 | 0.00 | 86 | 1017.2 |
| 20260507133037 | 15 | 61 | 8.0 | 22.5 | 0.00 | 0.00 | 0.00 | 86 | 1017.1 |
| 20260507132026 | 15 | 52 | 6.4 | 12.9 | 0.00 | 0.00 | 0.00 | 86 | 1017.2 |
| 20260507131018 | 15 | 40 | 8.0 | 25.7 | 0.00 | 0.00 | 0.00 | 85 | 1017.3 |
| 20260507130041 | 15 | 61 | 6.4 | 14.5 | 0.00 | 0.00 | 0.00 | 85 | 1017.4 |
| 20260507125034 | 15 | 74 | 8.0 | 22.5 | 0.00 | 0.00 | 0.00 | 84 | 1017.3 |
| 20260507124025 | 15 | 85 | 6.4 | 14.5 | 0.00 | 0.00 | 0.00 | 84 | 1017.5 |
| 20260507123017 | 15 | 63 | 4.8 | 12.9 | 0.00 | 0.00 | 0.00 | 86 | 1017.6 |
| 20260507122041 | 14 | 54 | 12.9 | 32.2 | 0.00 | 0.00 | 0.00 | 87 | 1017.8 |
| 20260507121034 | 15 | 69 | 11.3 | 29.0 | 0.00 | 0.00 | 0.00 | 85 | 1017.8 |
| 20260507120026 | 14 | 47 | 6.4 | 14.5 | 0.00 | 0.00 | 0.00 | 87 | 1017.9 |
| 20260507115018 | 14 | 52 | 8.0 | 22.5 | 0.00 | 0.00 | 0.00 | 86 | 1018.0 |
| 20260507114102 | 14 | 36 | 9.7 | 17.7 | 0.00 | 0.00 | 0.00 | 87 | 1017.9 |
| 20260507113034 | 14 | 31 | 8.0 | 17.7 | 0.00 | 0.00 | 0.00 | 86 | 1017.9 |
| 20260507112043 | 15 | 50 | 6.4 | 22.5 | 0.00 | 0.00 | 0.00 | 85 | 1018.0 |
| 20260507111054 | 14 | 54 | 11.3 | 22.5 | 0.00 | 0.00 | 0.00 | 86 | 1018.0 |
| 20260507110042 | 15 | 72 | 9.7 | 20.9 | 0.00 | 0.00 | 0.00 | 84 | 1018.0 |
| 20260507105034 | 15 | 43 | 4.8 | 14.5 | 0.00 | 0.00 | 0.00 | 82 | 1018.0 |
| 20260507104026 | 15 | 39 | 4.8 | 14.5 | 0.00 | 0.00 | 0.00 | 81 | 1018.0 |
| 20260507103018 | 15 | 55 | 4.8 | 14.5 | 0.00 | 0.00 | 0.00 | 82 | 1018.1 |
| 20260507102026 | 15 | 69 | 4.8 | 14.5 | 0.00 | 0.00 | 0.00 | 81 | 1018.2 |
| 20260507101019 | 15 | 60 | 4.8 | 16.1 | 0.00 | 0.00 | 0.00 | 81 | 1018.2 |
| 20260507100026 | 15 | 79 | 4.8 | 12.9 | 0.00 | 0.00 | 0.00 | 80 | 1018.1 |
| 20260507095018 | 15 | 67 | 4.8 | 9.7 | 0.00 | 0.00 | 0.00 | 81 | 1018.1 |
| 20260507094042 | 15 | 34 | 3.2 | 11.3 | 0.00 | 0.00 | 0.00 | 80 | 1018.2 |
| 20260507093052 | 15 | 34 | 3.2 | 4.8 | 0.00 | 0.00 | 0.00 | 81 | 1018.2 |
| 20260507092026 | 15 | 48 | 4.8 | 12.9 | 0.00 | 0.00 | 0.00 | 82 | 1018.3 |
| 20260507091038 | 15 | 61 | 4.8 | 14.5 | 0.00 | 0.00 | 0.00 | 83 | 1018.3 |
| 20260507090042 | 14 | 61 | 3.2 | 9.7 | 0.00 | 0.00 | 0.00 | 84 | 1018.4 |
| 20260507085020 | 14 | 53 | 4.8 | 14.5 | 0.00 | 0.00 | 0.00 | 85 | 1018.3 |
| 20260507084043 | 13 | 58 | 4.8 | 14.5 | 0.00 | 0.00 | 0.00 | 85 | 1018.3 |
| 20260507083034 | 13 | 54 | 4.8 | 12.9 | 0.00 | 0.00 | 0.00 | 87 | 1018.3 |
| 20260507082029 | 14 | 71 | 4.8 | 16.1 | 0.00 | 0.00 | 0.00 | 84 | 1018.3 |
| 20260507081018 | 13 | 67 | 4.8 | 11.3 | 0.00 | 0.00 | 0.00 | 84 | 1018.3 |
| 20260507080042 | 13 | 75 | 4.8 | 12.9 | 0.00 | 0.00 | 0.00 | 86 | 1018.3 |
| 20260507075034 | 13 | 75 | 6.4 | 11.3 | 0.00 | 0.00 | 0.00 | 82 | 1018.4 |
| 20260507074027 | 13 | 70 | 3.2 | 9.7 | 0.00 | 0.00 | 0.00 | 84 | 1018.5 |
| 20260507073018 | 14 | 80 | 4.8 | 9.7 | 0.00 | 0.00 | 0.00 | 81 | 1018.4 |
| 20260507072033 | 13 | 124 | 1.6 | 4.8 | 0.00 | 0.00 | 0.00 | 81 | 1018.4 |
| 20260507071034 | 13 | 180 | 3.2 | 8.0 | 0.00 | 0.00 | 0.00 | 82 | 1018.5 |
| 20260507070026 | 13 | 119 | 3.2 | 9.7 | 0.00 | 0.00 | 0.00 | 84 | 1018.6 |
| 20260507065018 | 12 | 73 | 3.2 | 8.0 | 0.00 | 0.00 | 0.00 | 89 | 1018.3 |
| 20260507064042 | 11 | 66 | 1.6 | 4.8 | 0.00 | 0.00 | 0.00 | 95 | 1018.4 |